sensor_id;sensor_type;location;lat;lon;timestamp;P1;durP1;ratioP1;P2;durP2;ratioP2
46781;SDS011;32541;46.298;11.506;2023-04-03T00:00:41;0.73;;;0.20;;
46781;SDS011;32541;46.298;11.506;2023-04-03T00:03:07;0.13;;;0.10;;
46781;SDS011;32541;46.298;11.506;2023-04-03T00:05:33;0.10;;;0.10;;
46781;SDS011;32541;46.298;11.506;2023-04-03T00:07:58;0.37;;;0.20;;
46781;SDS011;32541;46.298;11.506;2023-04-03T00:10:24;0.40;;;0.20;;
46781;SDS011;32541;46.298;11.506;2023-04-03T00:12:49;0.63;;;0.10;;
46781;SDS011;32541;46.298;11.506;2023-04-03T00:15:14;0.20;;;0.20;;
46781;SDS011;32541;46.298;11.506;2023-04-03T00:17:40;0.40;;;0.30;;
46781;SDS011;32541;46.298;11.506;2023-04-03T00:20:05;0.23;;;0.23;;
46781;SDS011;32541;46.298;11.506;2023-04-03T00:22:31;0.00;;;0.00;;
46781;SDS011;32541;46.298;11.506;2023-04-03T00:24:57;0.30;;;0.10;;
46781;SDS011;32541;46.298;11.506;2023-04-03T00:27:22;0.73;;;0.30;;
46781;SDS011;32541;46.298;11.506;2023-04-03T00:29:47;0.57;;;0.20;;
46781;SDS011;32541;46.298;11.506;2023-04-03T00:32:13;0.40;;;0.27;;
46781;SDS011;32541;46.298;11.506;2023-04-03T00:34:38;1.37;;;0.37;;
46781;SDS011;32541;46.298;11.506;2023-04-03T00:37:04;1.10;;;0.47;;
46781;SDS011;32541;46.298;11.506;2023-04-03T00:39:29;0.63;;;0.30;;
46781;SDS011;32541;46.298;11.506;2023-04-03T00:41:55;1.03;;;0.50;;
46781;SDS011;32541;46.298;11.506;2023-04-03T00:47:13;0.50;;;0.20;;
46781;SDS011;32541;46.298;11.506;2023-04-03T00:49:40;0.10;;;0.10;;
46781;SDS011;32541;46.298;11.506;2023-04-03T00:52:08;0.40;;;0.20;;
46781;SDS011;32541;46.298;11.506;2023-04-03T00:54:37;0.30;;;0.20;;
46781;SDS011;32541;46.298;11.506;2023-04-03T00:57:05;0.63;;;0.20;;
46781;SDS011;32541;46.298;11.506;2023-04-03T00:59:33;0.20;;;0.20;;
46781;SDS011;32541;46.298;11.506;2023-04-03T01:02:03;0.77;;;0.10;;
46781;SDS011;32541;46.298;11.506;2023-04-03T01:04:33;0.27;;;0.10;;
46781;SDS011;32541;46.298;11.506;2023-04-03T01:07:02;0.30;;;0.20;;
46781;SDS011;32541;46.298;11.506;2023-04-03T01:09:31;0.53;;;0.20;;
46781;SDS011;32541;46.298;11.506;2023-04-03T01:14:44;0.93;;;0.30;;
46781;SDS011;32541;46.298;11.506;2023-04-03T01:22:46;0.80;;;0.20;;
46781;SDS011;32541;46.298;11.506;2023-04-03T01:25:18;0.63;;;0.10;;
46781;SDS011;32541;46.298;11.506;2023-04-03T01:27:44;0.20;;;0.10;;
46781;SDS011;32541;46.298;11.506;2023-04-03T01:30:09;0.30;;;0.10;;
46781;SDS011;32541;46.298;11.506;2023-04-03T01:32:35;3.93;;;0.20;;
46781;SDS011;32541;46.298;11.506;2023-04-03T01:35:01;0.10;;;0.10;;
46781;SDS011;32541;46.298;11.506;2023-04-03T01:37:26;0.47;;;0.13;;
46781;SDS011;32541;46.298;11.506;2023-04-03T01:39:51;0.17;;;0.10;;
46781;SDS011;32541;46.298;11.506;2023-04-03T01:42:17;0.20;;;0.10;;
46781;SDS011;32541;46.298;11.506;2023-04-03T01:44:42;0.10;;;0.10;;
46781;SDS011;32541;46.298;11.506;2023-04-03T01:47:08;0.37;;;0.10;;
46781;SDS011;32541;46.298;11.506;2023-04-03T01:49:33;0.30;;;0.20;;
46781;SDS011;32541;46.298;11.506;2023-04-03T01:51:58;0.10;;;0.10;;
46781;SDS011;32541;46.298;11.506;2023-04-03T01:54:24;0.33;;;0.10;;
46781;SDS011;32541;46.298;11.506;2023-04-03T01:56:49;1.23;;;0.07;;
46781;SDS011;32541;46.298;11.506;2023-04-03T01:59:15;0.00;;;0.00;;
46781;SDS011;32541;46.298;11.506;2023-04-03T02:01:42;0.30;;;0.20;;
46781;SDS011;32541;46.298;11.506;2023-04-03T02:04:10;0.00;;;0.00;;
46781;SDS011;32541;46.298;11.506;2023-04-03T02:06:36;0.27;;;0.20;;
46781;SDS011;32541;46.298;11.506;2023-04-03T02:09:01;0.10;;;0.10;;
46781;SDS011;32541;46.298;11.506;2023-04-03T02:11:27;0.10;;;0.10;;
46781;SDS011;32541;46.298;11.506;2023-04-03T02:13:53;1.50;;;0.10;;
46781;SDS011;32541;46.298;11.506;2023-04-03T02:16:18;0.10;;;0.10;;
46781;SDS011;32541;46.298;11.506;2023-04-03T02:18:43;0.33;;;0.20;;
46781;SDS011;32541;46.298;11.506;2023-04-03T02:21:09;0.10;;;0.07;;
46781;SDS011;32541;46.298;11.506;2023-04-03T02:23:34;0.80;;;0.30;;
46781;SDS011;32541;46.298;11.506;2023-04-03T02:26:02;1.33;;;0.20;;
46781;SDS011;32541;46.298;11.506;2023-04-03T02:28:32;0.20;;;0.03;;
46781;SDS011;32541;46.298;11.506;2023-04-03T02:30:58;0.20;;;0.10;;
46781;SDS011;32541;46.298;11.506;2023-04-03T02:33:23;0.67;;;0.30;;
46781;SDS011;32541;46.298;11.506;2023-04-03T02:35:52;0.30;;;0.10;;
46781;SDS011;32541;46.298;11.506;2023-04-03T02:38:18;0.73;;;0.10;;
46781;SDS011;32541;46.298;11.506;2023-04-03T02:40:43;0.00;;;0.00;;
46781;SDS011;32541;46.298;11.506;2023-04-03T02:43:09;1.17;;;0.20;;
46781;SDS011;32541;46.298;11.506;2023-04-03T02:45:35;0.20;;;0.20;;
46781;SDS011;32541;46.298;11.506;2023-04-03T02:48:00;0.20;;;0.10;;
46781;SDS011;32541;46.298;11.506;2023-04-03T02:50:25;0.00;;;0.00;;
46781;SDS011;32541;46.298;11.506;2023-04-03T02:52:51;0.03;;;0.03;;
46781;SDS011;32541;46.298;11.506;2023-04-03T02:55:16;0.10;;;0.00;;
46781;SDS011;32541;46.298;11.506;2023-04-03T02:57:41;0.10;;;0.10;;
46781;SDS011;32541;46.298;11.506;2023-04-03T03:00:07;0.30;;;0.10;;
46781;SDS011;32541;46.298;11.506;2023-04-03T03:02:33;0.10;;;0.10;;
46781;SDS011;32541;46.298;11.506;2023-04-03T03:04:59;0.10;;;0.00;;
46781;SDS011;32541;46.298;11.506;2023-04-03T03:07:24;0.00;;;0.00;;
46781;SDS011;32541;46.298;11.506;2023-04-03T03:09:50;1.20;;;0.10;;
46781;SDS011;32541;46.298;11.506;2023-04-03T03:12:16;0.43;;;0.17;;
46781;SDS011;32541;46.298;11.506;2023-04-03T03:14:46;0.10;;;0.10;;
46781;SDS011;32541;46.298;11.506;2023-04-03T03:17:11;0.50;;;0.13;;
46781;SDS011;32541;46.298;11.506;2023-04-03T03:19:37;0.60;;;0.27;;
46781;SDS011;32541;46.298;11.506;2023-04-03T03:22:02;0.10;;;0.10;;
46781;SDS011;32541;46.298;11.506;2023-04-03T03:24:27;0.20;;;0.20;;
46781;SDS011;32541;46.298;11.506;2023-04-03T03:26:53;0.70;;;0.10;;
46781;SDS011;32541;46.298;11.506;2023-04-03T03:29:18;0.77;;;0.10;;
46781;SDS011;32541;46.298;11.506;2023-04-03T03:31:44;0.17;;;0.10;;
46781;SDS011;32541;46.298;11.506;2023-04-03T03:34:09;0.10;;;0.10;;
46781;SDS011;32541;46.298;11.506;2023-04-03T03:36:35;0.10;;;0.10;;
46781;SDS011;32541;46.298;11.506;2023-04-03T03:39:01;0.77;;;0.20;;
46781;SDS011;32541;46.298;11.506;2023-04-03T03:41:26;0.30;;;0.20;;
46781;SDS011;32541;46.298;11.506;2023-04-03T03:43:52;0.40;;;0.20;;
46781;SDS011;32541;46.298;11.506;2023-04-03T03:46:17;0.10;;;0.10;;
46781;SDS011;32541;46.298;11.506;2023-04-03T03:48:42;0.47;;;0.20;;
46781;SDS011;32541;46.298;11.506;2023-04-03T03:51:08;0.23;;;0.10;;
46781;SDS011;32541;46.298;11.506;2023-04-03T03:53:33;0.10;;;0.10;;
46781;SDS011;32541;46.298;11.506;2023-04-03T03:55:59;0.10;;;0.10;;
46781;SDS011;32541;46.298;11.506;2023-04-03T03:58:24;0.20;;;0.20;;
46781;SDS011;32541;46.298;11.506;2023-04-03T04:00:50;0.37;;;0.30;;
46781;SDS011;32541;46.298;11.506;2023-04-03T04:03:15;2.77;;;1.30;;
46781;SDS011;32541;46.298;11.506;2023-04-03T04:05:41;3.50;;;1.50;;
46781;SDS011;32541;46.298;11.506;2023-04-03T04:08:06;4.93;;;1.70;;
46781;SDS011;32541;46.298;11.506;2023-04-03T04:10:32;3.30;;;1.10;;
46781;SDS011;32541;46.298;11.506;2023-04-03T04:12:58;0.77;;;0.40;;
46781;SDS011;32541;46.298;11.506;2023-04-03T04:15:23;1.00;;;0.50;;
46781;SDS011;32541;46.298;11.506;2023-04-03T04:17:50;0.40;;;0.30;;
46781;SDS011;32541;46.298;11.506;2023-04-03T04:20:16;1.60;;;0.67;;
46781;SDS011;32541;46.298;11.506;2023-04-03T04:22:41;3.37;;;1.03;;
46781;SDS011;32541;46.298;11.506;2023-04-03T04:25:07;2.53;;;0.83;;
46781;SDS011;32541;46.298;11.506;2023-04-03T04:27:32;1.37;;;0.73;;
46781;SDS011;32541;46.298;11.506;2023-04-03T04:29:58;6.03;;;1.57;;
46781;SDS011;32541;46.298;11.506;2023-04-03T04:32:23;4.23;;;1.70;;
46781;SDS011;32541;46.298;11.506;2023-04-03T04:34:48;6.77;;;2.20;;
46781;SDS011;32541;46.298;11.506;2023-04-03T04:37:14;8.33;;;2.80;;
46781;SDS011;32541;46.298;11.506;2023-04-03T04:39:39;12.10;;;4.83;;
46781;SDS011;32541;46.298;11.506;2023-04-03T04:42:05;6.73;;;2.83;;
46781;SDS011;32541;46.298;11.506;2023-04-03T04:44:32;4.37;;;1.20;;
46781;SDS011;32541;46.298;11.506;2023-04-03T04:46:57;4.53;;;1.40;;
46781;SDS011;32541;46.298;11.506;2023-04-03T04:49:22;8.00;;;2.90;;
46781;SDS011;32541;46.298;11.506;2023-04-03T04:51:48;11.93;;;4.63;;
46781;SDS011;32541;46.298;11.506;2023-04-03T04:54:14;6.43;;;3.93;;
46781;SDS011;32541;46.298;11.506;2023-04-03T04:56:39;2.53;;;1.43;;
46781;SDS011;32541;46.298;11.506;2023-04-03T04:59:05;2.97;;;1.50;;
46781;SDS011;32541;46.298;11.506;2023-04-03T05:01:30;4.93;;;2.20;;
46781;SDS011;32541;46.298;11.506;2023-04-03T05:03:56;3.33;;;0.80;;
46781;SDS011;32541;46.298;11.506;2023-04-03T05:06:21;1.83;;;1.20;;
46781;SDS011;32541;46.298;11.506;2023-04-03T05:08:46;0.30;;;0.20;;
46781;SDS011;32541;46.298;11.506;2023-04-03T05:11:12;2.47;;;1.37;;
46781;SDS011;32541;46.298;11.506;2023-04-03T05:13:37;1.67;;;0.50;;
46781;SDS011;32541;46.298;11.506;2023-04-03T05:16:02;2.97;;;1.50;;
46781;SDS011;32541;46.298;11.506;2023-04-03T05:18:28;4.43;;;2.27;;
46781;SDS011;32541;46.298;11.506;2023-04-03T05:20:53;2.67;;;0.60;;
46781;SDS011;32541;46.298;11.506;2023-04-03T05:23:19;2.47;;;1.50;;
46781;SDS011;32541;46.298;11.506;2023-04-03T05:25:44;3.87;;;1.57;;
46781;SDS011;32541;46.298;11.506;2023-04-03T05:28:11;2.73;;;1.07;;
46781;SDS011;32541;46.298;11.506;2023-04-03T05:30:37;5.97;;;3.10;;
46781;SDS011;32541;46.298;11.506;2023-04-03T05:33:03;11.47;;;5.57;;
46781;SDS011;32541;46.298;11.506;2023-04-03T05:35:28;1.63;;;1.30;;
46781;SDS011;32541;46.298;11.506;2023-04-03T05:37:53;3.30;;;1.43;;
46781;SDS011;32541;46.298;11.506;2023-04-03T05:40:19;3.00;;;1.63;;
46781;SDS011;32541;46.298;11.506;2023-04-03T05:42:45;2.83;;;0.97;;
46781;SDS011;32541;46.298;11.506;2023-04-03T05:45:10;3.73;;;2.30;;
46781;SDS011;32541;46.298;11.506;2023-04-03T05:47:36;2.10;;;1.27;;
46781;SDS011;32541;46.298;11.506;2023-04-03T05:50:01;4.57;;;2.10;;
46781;SDS011;32541;46.298;11.506;2023-04-03T05:52:28;1.47;;;0.97;;
46781;SDS011;32541;46.298;11.506;2023-04-03T05:54:56;0.93;;;0.43;;
46781;SDS011;32541;46.298;11.506;2023-04-03T05:57:22;31.37;;;11.90;;
46781;SDS011;32541;46.298;11.506;2023-04-03T05:59:48;49.83;;;19.27;;
46781;SDS011;32541;46.298;11.506;2023-04-03T06:02:17;35.70;;;16.13;;
46781;SDS011;32541;46.298;11.506;2023-04-03T06:04:45;12.13;;;4.60;;
46781;SDS011;32541;46.298;11.506;2023-04-03T06:07:11;44.77;;;24.67;;
46781;SDS011;32541;46.298;11.506;2023-04-03T06:09:39;14.93;;;8.73;;
46781;SDS011;32541;46.298;11.506;2023-04-03T06:12:04;1.70;;;0.90;;
46781;SDS011;32541;46.298;11.506;2023-04-03T06:14:30;0.10;;;0.10;;
46781;SDS011;32541;46.298;11.506;2023-04-03T06:16:55;1.60;;;0.50;;
46781;SDS011;32541;46.298;11.506;2023-04-03T06:19:21;3.20;;;1.47;;
46781;SDS011;32541;46.298;11.506;2023-04-03T06:21:46;4.33;;;2.07;;
46781;SDS011;32541;46.298;11.506;2023-04-03T06:24:12;16.23;;;7.30;;
46781;SDS011;32541;46.298;11.506;2023-04-03T06:26:40;13.13;;;5.57;;
46781;SDS011;32541;46.298;11.506;2023-04-03T06:29:06;14.70;;;10.03;;
46781;SDS011;32541;46.298;11.506;2023-04-03T06:31:32;4.90;;;2.20;;
46781;SDS011;32541;46.298;11.506;2023-04-03T06:33:57;6.20;;;3.30;;
46781;SDS011;32541;46.298;11.506;2023-04-03T06:36:23;5.17;;;2.73;;
46781;SDS011;32541;46.298;11.506;2023-04-03T06:38:48;6.07;;;3.20;;
46781;SDS011;32541;46.298;11.506;2023-04-03T06:41:13;1.87;;;0.90;;
46781;SDS011;32541;46.298;11.506;2023-04-03T06:43:39;1.17;;;0.57;;
46781;SDS011;32541;46.298;11.506;2023-04-03T06:46:05;1.53;;;0.97;;
46781;SDS011;32541;46.298;11.506;2023-04-03T06:48:31;6.33;;;3.87;;
46781;SDS011;32541;46.298;11.506;2023-04-03T06:50:56;1.13;;;0.83;;
46781;SDS011;32541;46.298;11.506;2023-04-03T06:53:22;0.50;;;0.30;;
46781;SDS011;32541;46.298;11.506;2023-04-03T06:55:47;0.20;;;0.20;;
46781;SDS011;32541;46.298;11.506;2023-04-03T06:58:13;0.30;;;0.10;;
46781;SDS011;32541;46.298;11.506;2023-04-03T07:00:40;4.10;;;1.20;;
46781;SDS011;32541;46.298;11.506;2023-04-03T07:03:06;2.03;;;1.10;;
46781;SDS011;32541;46.298;11.506;2023-04-03T07:05:31;1.00;;;0.57;;
46781;SDS011;32541;46.298;11.506;2023-04-03T07:07:57;1.03;;;0.33;;
46781;SDS011;32541;46.298;11.506;2023-04-03T07:10:22;1.20;;;0.40;;
46781;SDS011;32541;46.298;11.506;2023-04-03T07:12:47;0.90;;;0.40;;
46781;SDS011;32541;46.298;11.506;2023-04-03T07:15:13;2.23;;;1.03;;
46781;SDS011;32541;46.298;11.506;2023-04-03T07:17:39;1.00;;;0.47;;
46781;SDS011;32541;46.298;11.506;2023-04-03T07:20:05;0.80;;;0.37;;
46781;SDS011;32541;46.298;11.506;2023-04-03T07:22:31;0.43;;;0.20;;
46781;SDS011;32541;46.298;11.506;2023-04-03T07:24:57;1.57;;;1.10;;
46781;SDS011;32541;46.298;11.506;2023-04-03T07:27:23;1.63;;;1.00;;
46781;SDS011;32541;46.298;11.506;2023-04-03T07:29:50;2.27;;;0.77;;
46781;SDS011;32541;46.298;11.506;2023-04-03T07:32:15;2.27;;;0.20;;
46781;SDS011;32541;46.298;11.506;2023-04-03T07:34:41;0.90;;;0.40;;
46781;SDS011;32541;46.298;11.506;2023-04-03T07:37:06;3.93;;;0.70;;
46781;SDS011;32541;46.298;11.506;2023-04-03T07:39:34;2.65;;;0.30;;
46781;SDS011;32541;46.298;11.506;2023-04-03T07:41:59;0.73;;;0.40;;
46781;SDS011;32541;46.298;11.506;2023-04-03T07:44:25;0.40;;;0.35;;
46781;SDS011;32541;46.298;11.506;2023-04-03T07:46:51;1.17;;;0.40;;
46781;SDS011;32541;46.298;11.506;2023-04-03T07:49:16;1.13;;;0.30;;
46781;SDS011;32541;46.298;11.506;2023-04-03T07:51:47;0.93;;;0.20;;
46781;SDS011;32541;46.298;11.506;2023-04-03T07:54:14;6.97;;;0.40;;
46781;SDS011;32541;46.298;11.506;2023-04-03T07:56:40;0.28;;;0.10;;
46781;SDS011;32541;46.298;11.506;2023-04-03T07:59:07;0.73;;;0.50;;
46781;SDS011;32541;46.298;11.506;2023-04-03T08:01:32;0.55;;;0.32;;
46781;SDS011;32541;46.298;11.506;2023-04-03T08:03:58;0.32;;;0.10;;
46781;SDS011;32541;46.298;11.506;2023-04-03T08:06:24;1.52;;;0.13;;
46781;SDS011;32541;46.298;11.506;2023-04-03T08:08:50;0.10;;;0.00;;
46781;SDS011;32541;46.298;11.506;2023-04-03T08:11:15;2.42;;;0.28;;
46781;SDS011;32541;46.298;11.506;2023-04-03T08:13:40;5.07;;;0.40;;
46781;SDS011;32541;46.298;11.506;2023-04-03T08:16:11;0.20;;;0.20;;
46781;SDS011;32541;46.298;11.506;2023-04-03T08:18:38;0.60;;;0.10;;
46781;SDS011;32541;46.298;11.506;2023-04-03T08:21:08;0.85;;;0.30;;
46781;SDS011;32541;46.298;11.506;2023-04-03T08:23:35;0.50;;;0.20;;
46781;SDS011;32541;46.298;11.506;2023-04-03T08:26:11;0.22;;;0.10;;
46781;SDS011;32541;46.298;11.506;2023-04-03T08:28:38;0.50;;;0.20;;
46781;SDS011;32541;46.298;11.506;2023-04-03T08:31:05;0.30;;;0.10;;
46781;SDS011;32541;46.298;11.506;2023-04-03T08:33:33;0.00;;;0.00;;
46781;SDS011;32541;46.298;11.506;2023-04-03T08:36:01;0.30;;;0.10;;
46781;SDS011;32541;46.298;11.506;2023-04-03T08:38:28;1.23;;;0.30;;
46781;SDS011;32541;46.298;11.506;2023-04-03T08:46:52;0.10;;;0.10;;
46781;SDS011;32541;46.298;11.506;2023-04-03T08:49:31;1.05;;;0.40;;
46781;SDS011;32541;46.298;11.506;2023-04-03T08:52:02;0.57;;;0.25;;
46781;SDS011;32541;46.298;11.506;2023-04-03T08:54:34;0.45;;;0.15;;
46781;SDS011;32541;46.298;11.506;2023-04-03T08:57:06;0.67;;;0.10;;
46781;SDS011;32541;46.298;11.506;2023-04-03T08:59:34;0.10;;;0.00;;
46781;SDS011;32541;46.298;11.506;2023-04-03T09:02:04;1.30;;;0.10;;
46781;SDS011;32541;46.298;11.506;2023-04-03T09:05:05;0.00;;;0.00;;
46781;SDS011;32541;46.298;11.506;2023-04-03T09:07:39;3.30;;;0.10;;
46781;SDS011;32541;46.298;11.506;2023-04-03T09:10:28;0.38;;;0.10;;
46781;SDS011;32541;46.298;11.506;2023-04-03T09:13:08;0.10;;;0.10;;
46781;SDS011;32541;46.298;11.506;2023-04-03T09:15:36;0.20;;;0.10;;
46781;SDS011;32541;46.298;11.506;2023-04-03T09:18:19;0.63;;;0.03;;
46781;SDS011;32541;46.298;11.506;2023-04-03T09:23:43;0.60;;;0.20;;
46781;SDS011;32541;46.298;11.506;2023-04-03T09:26:13;0.43;;;0.30;;
46781;SDS011;32541;46.298;11.506;2023-04-03T09:28:44;1.13;;;0.95;;
46781;SDS011;32541;46.298;11.506;2023-04-03T09:31:21;4.50;;;3.45;;
46781;SDS011;32541;46.298;11.506;2023-04-03T09:33:56;1.98;;;1.10;;
46781;SDS011;32541;46.298;11.506;2023-04-03T09:36:37;0.77;;;0.77;;
46781;SDS011;32541;46.298;11.506;2023-04-03T09:39:27;1.33;;;0.90;;
46781;SDS011;32541;46.298;11.506;2023-04-03T09:42:04;2.30;;;0.32;;
46781;SDS011;32541;46.298;11.506;2023-04-03T09:44:40;0.20;;;0.20;;
46781;SDS011;32541;46.298;11.506;2023-04-03T09:47:25;0.35;;;0.30;;
46781;SDS011;32541;46.298;11.506;2023-04-03T09:50:41;0.35;;;0.35;;
46781;SDS011;32541;46.298;11.506;2023-04-03T09:52:47;4.28;;;3.45;;
46781;SDS011;32541;46.298;11.506;2023-04-03T09:57:46;0.40;;;0.40;;
46781;SDS011;32541;46.298;11.506;2023-04-03T10:02:51;1.52;;;0.10;;
46781;SDS011;32541;46.298;11.506;2023-04-03T10:05:38;0.63;;;0.40;;
46781;SDS011;32541;46.298;11.506;2023-04-03T10:08:08;0.20;;;0.10;;
46781;SDS011;32541;46.298;11.506;2023-04-03T10:10:40;0.32;;;0.20;;
46781;SDS011;32541;46.298;11.506;2023-04-03T10:13:11;1.65;;;1.42;;
46781;SDS011;32541;46.298;11.506;2023-04-03T10:15:44;5.95;;;4.68;;
46781;SDS011;32541;46.298;11.506;2023-04-03T10:20:44;2.35;;;1.88;;
46781;SDS011;32541;46.298;11.506;2023-04-03T10:26:02;1.40;;;1.23;;
46781;SDS011;32541;46.298;11.506;2023-04-03T10:28:39;0.25;;;0.20;;
46781;SDS011;32541;46.298;11.506;2023-04-03T10:31:21;2.47;;;0.50;;
46781;SDS011;32541;46.298;11.506;2023-04-03T10:34:06;2.90;;;0.30;;
46781;SDS011;32541;46.298;11.506;2023-04-03T10:36:41;1.00;;;0.80;;
46781;SDS011;32541;46.298;11.506;2023-04-03T10:39:20;0.90;;;0.40;;
46781;SDS011;32541;46.298;11.506;2023-04-03T10:41:58;0.40;;;0.17;;
46781;SDS011;32541;46.298;11.506;2023-04-03T10:44:31;1.35;;;0.10;;
46781;SDS011;32541;46.298;11.506;2023-04-03T10:52:37;2.38;;;0.20;;
46781;SDS011;32541;46.298;11.506;2023-04-03T10:58:00;1.73;;;0.20;;
46781;SDS011;32541;46.298;11.506;2023-04-03T11:00:44;2.25;;;0.52;;
46781;SDS011;32541;46.298;11.506;2023-04-03T11:03:17;2.03;;;0.57;;
46781;SDS011;32541;46.298;11.506;2023-04-03T11:05:56;6.22;;;0.60;;
46781;SDS011;32541;46.298;11.506;2023-04-03T11:11:22;0.20;;;0.20;;
46781;SDS011;32541;46.298;11.506;2023-04-03T11:13:53;0.38;;;0.25;;
46781;SDS011;32541;46.298;11.506;2023-04-03T11:16:27;0.45;;;0.20;;
46781;SDS011;32541;46.298;11.506;2023-04-03T11:21:37;0.32;;;0.10;;
46781;SDS011;32541;46.298;11.506;2023-04-03T11:24:13;3.50;;;0.15;;
46781;SDS011;32541;46.298;11.506;2023-04-03T11:26:45;1.30;;;0.30;;
46781;SDS011;32541;46.298;11.506;2023-04-03T11:29:13;21.02;;;1.60;;
46781;SDS011;32541;46.298;11.506;2023-04-03T11:34:39;1.35;;;0.13;;
46781;SDS011;32541;46.298;11.506;2023-04-03T11:37:29;0.68;;;0.30;;
46781;SDS011;32541;46.298;11.506;2023-04-03T11:42:41;1.50;;;0.10;;
46781;SDS011;32541;46.298;11.506;2023-04-03T11:45:21;0.35;;;0.20;;
46781;SDS011;32541;46.298;11.506;2023-04-03T12:05:49;1.08;;;0.38;;
46781;SDS011;32541;46.298;11.506;2023-04-03T12:08:21;0.30;;;0.13;;
46781;SDS011;32541;46.298;11.506;2023-04-03T12:11:34;15.80;;;0.50;;
46781;SDS011;32541;46.298;11.506;2023-04-03T12:19:03;0.20;;;0.10;;
46781;SDS011;32541;46.298;11.506;2023-04-03T12:26:50;0.93;;;0.20;;
46781;SDS011;32541;46.298;11.506;2023-04-03T12:35:03;0.50;;;0.10;;
46781;SDS011;32541;46.298;11.506;2023-04-03T12:37:51;2.13;;;0.17;;
46781;SDS011;32541;46.298;11.506;2023-04-03T12:43:13;0.75;;;0.45;;
46781;SDS011;32541;46.298;11.506;2023-04-03T12:48:28;0.90;;;0.20;;
46781;SDS011;32541;46.298;11.506;2023-04-03T12:50:56;0.50;;;0.40;;
46781;SDS011;32541;46.298;11.506;2023-04-03T12:53:24;1.58;;;1.40;;
46781;SDS011;32541;46.298;11.506;2023-04-03T12:55:56;0.10;;;0.10;;
46781;SDS011;32541;46.298;11.506;2023-04-03T12:58:23;0.17;;;0.10;;
46781;SDS011;32541;46.298;11.506;2023-04-03T13:01:01;0.17;;;0.10;;
46781;SDS011;32541;46.298;11.506;2023-04-03T13:03:28;0.10;;;0.10;;
46781;SDS011;32541;46.298;11.506;2023-04-03T13:06:01;0.10;;;0.10;;
46781;SDS011;32541;46.298;11.506;2023-04-03T13:08:28;3.42;;;0.63;;
46781;SDS011;32541;46.298;11.506;2023-04-03T13:11:02;0.57;;;0.20;;
46781;SDS011;32541;46.298;11.506;2023-04-03T13:13:33;0.35;;;0.20;;
46781;SDS011;32541;46.298;11.506;2023-04-03T13:15:58;3.30;;;0.20;;
46781;SDS011;32541;46.298;11.506;2023-04-03T13:18:28;0.65;;;0.10;;
46781;SDS011;32541;46.298;11.506;2023-04-03T13:21:05;0.40;;;0.25;;
46781;SDS011;32541;46.298;11.506;2023-04-03T13:23:34;0.13;;;0.13;;
46781;SDS011;32541;46.298;11.506;2023-04-03T13:26:02;1.92;;;0.20;;
46781;SDS011;32541;46.298;11.506;2023-04-03T13:28:29;1.52;;;0.20;;
46781;SDS011;32541;46.298;11.506;2023-04-03T13:31:14;2.50;;;0.40;;
46781;SDS011;32541;46.298;11.506;2023-04-03T13:33:58;0.93;;;0.10;;
46781;SDS011;32541;46.298;11.506;2023-04-03T13:36:34;0.30;;;0.20;;
46781;SDS011;32541;46.298;11.506;2023-04-03T13:41:42;0.10;;;0.10;;
46781;SDS011;32541;46.298;11.506;2023-04-03T13:46:51;2.55;;;0.30;;
46781;SDS011;32541;46.298;11.506;2023-04-03T13:51:43;0.10;;;0.10;;
46781;SDS011;32541;46.298;11.506;2023-04-03T13:54:51;2.60;;;0.30;;
46781;SDS011;32541;46.298;11.506;2023-04-03T13:57:00;2.83;;;0.25;;
46781;SDS011;32541;46.298;11.506;2023-04-03T13:59:28;3.90;;;1.40;;
46781;SDS011;32541;46.298;11.506;2023-04-03T14:04:27;3.47;;;0.40;;
46781;SDS011;32541;46.298;11.506;2023-04-03T14:06:55;3.22;;;0.20;;
46781;SDS011;32541;46.298;11.506;2023-04-03T14:09:21;0.30;;;0.10;;
46781;SDS011;32541;46.298;11.506;2023-04-03T14:11:48;2.60;;;0.30;;
46781;SDS011;32541;46.298;11.506;2023-04-03T14:14:21;13.05;;;0.60;;
46781;SDS011;32541;46.298;11.506;2023-04-03T14:17:00;0.40;;;0.20;;
46781;SDS011;32541;46.298;11.506;2023-04-03T14:19:29;1.30;;;0.40;;
46781;SDS011;32541;46.298;11.506;2023-04-03T14:21:57;0.43;;;0.30;;
46781;SDS011;32541;46.298;11.506;2023-04-03T14:24:23;1.25;;;0.20;;
46781;SDS011;32541;46.298;11.506;2023-04-03T14:26:50;2.00;;;0.20;;
46781;SDS011;32541;46.298;11.506;2023-04-03T14:29:20;2.20;;;0.22;;
46781;SDS011;32541;46.298;11.506;2023-04-03T14:31:46;0.40;;;0.30;;
46781;SDS011;32541;46.298;11.506;2023-04-03T14:34:13;0.65;;;0.30;;
46781;SDS011;32541;46.298;11.506;2023-04-03T14:36:40;0.10;;;0.10;;
46781;SDS011;32541;46.298;11.506;2023-04-03T14:39:08;1.92;;;0.28;;
46781;SDS011;32541;46.298;11.506;2023-04-03T14:44:07;0.30;;;0.20;;
46781;SDS011;32541;46.298;11.506;2023-04-03T14:46:34;0.20;;;0.20;;
46781;SDS011;32541;46.298;11.506;2023-04-03T14:49:04;8.02;;;1.65;;
46781;SDS011;32541;46.298;11.506;2023-04-03T14:51:39;0.43;;;0.20;;
46781;SDS011;32541;46.298;11.506;2023-04-03T14:54:05;0.60;;;0.20;;
46781;SDS011;32541;46.298;11.506;2023-04-03T14:56:36;4.22;;;0.43;;
46781;SDS011;32541;46.298;11.506;2023-04-03T14:59:02;0.88;;;0.17;;
46781;SDS011;32541;46.298;11.506;2023-04-03T15:01:33;0.28;;;0.22;;
46781;SDS011;32541;46.298;11.506;2023-04-03T15:03:59;0.22;;;0.20;;
46781;SDS011;32541;46.298;11.506;2023-04-03T15:06:25;0.60;;;0.20;;
46781;SDS011;32541;46.298;11.506;2023-04-03T15:08:51;0.93;;;0.30;;
46781;SDS011;32541;46.298;11.506;2023-04-03T15:11:16;1.75;;;0.43;;
46781;SDS011;32541;46.298;11.506;2023-04-03T15:13:42;0.35;;;0.20;;
46781;SDS011;32541;46.298;11.506;2023-04-03T15:16:17;4.43;;;0.50;;
46781;SDS011;32541;46.298;11.506;2023-04-03T15:18:46;0.60;;;0.30;;
46781;SDS011;32541;46.298;11.506;2023-04-03T15:21:14;2.10;;;0.25;;
46781;SDS011;32541;46.298;11.506;2023-04-03T15:23:40;0.30;;;0.10;;
46781;SDS011;32541;46.298;11.506;2023-04-03T15:26:07;0.70;;;0.30;;
46781;SDS011;32541;46.298;11.506;2023-04-03T15:28:34;8.32;;;0.60;;
46781;SDS011;32541;46.298;11.506;2023-04-03T15:31:02;9.65;;;0.70;;
46781;SDS011;32541;46.298;11.506;2023-04-03T15:33:28;0.32;;;0.30;;
46781;SDS011;32541;46.298;11.506;2023-04-03T15:35:55;0.60;;;0.40;;
46781;SDS011;32541;46.298;11.506;2023-04-03T15:38:20;3.92;;;0.40;;
46781;SDS011;32541;46.298;11.506;2023-04-03T15:40:46;1.85;;;0.30;;
46781;SDS011;32541;46.298;11.506;2023-04-03T15:43:12;0.38;;;0.20;;
46781;SDS011;32541;46.298;11.506;2023-04-03T15:45:39;1.35;;;0.20;;
46781;SDS011;32541;46.298;11.506;2023-04-03T15:48:05;0.40;;;0.20;;
46781;SDS011;32541;46.298;11.506;2023-04-03T15:50:32;0.93;;;0.30;;
46781;SDS011;32541;46.298;11.506;2023-04-03T15:52:58;0.77;;;0.32;;
46781;SDS011;32541;46.298;11.506;2023-04-03T15:55:24;2.20;;;0.20;;
46781;SDS011;32541;46.298;11.506;2023-04-03T15:57:52;1.70;;;0.80;;
46781;SDS011;32541;46.298;11.506;2023-04-03T16:00:17;0.68;;;0.28;;
46781;SDS011;32541;46.298;11.506;2023-04-03T16:02:44;0.55;;;0.30;;
46781;SDS011;32541;46.298;11.506;2023-04-03T16:05:11;0.95;;;0.28;;
46781;SDS011;32541;46.298;11.506;2023-04-03T16:07:41;2.92;;;0.40;;
46781;SDS011;32541;46.298;11.506;2023-04-03T16:10:07;0.60;;;0.30;;
46781;SDS011;32541;46.298;11.506;2023-04-03T16:12:34;0.32;;;0.28;;
46781;SDS011;32541;46.298;11.506;2023-04-03T16:15:00;0.35;;;0.30;;
46781;SDS011;32541;46.298;11.506;2023-04-03T16:17:26;0.70;;;0.40;;
46781;SDS011;32541;46.298;11.506;2023-04-03T16:19:52;1.60;;;0.30;;
46781;SDS011;32541;46.298;11.506;2023-04-03T16:22:19;2.05;;;0.40;;